Time;durP1;ratioP1;P1;durP2;ratioP2;P2;SDS_P1;SDS_P2;PMS_P1;PMS_P2;Temp;Humidity;BMP_temperature;BMP_pressure;BME280_temperature;BME280_humidity;BME280_pressure;Samples;Min_cycle;Max_cycle;Signal;HPM_P1;HPM_P2
2022/05/01 00:02:22;;;;;;;15.63;6.65;;;;;;;1.82;94.69;100881.09;1691431;84;21436;-70
2022/05/01 00:04:49;;;;;;;15.88;6.67;;;;;;;1.84;95.06;100884.59;1691434;84;21073;-71
2022/05/01 00:07:15;;;;;;;9.88;6.20;;;;;;;1.83;95.28;100885.42;1691541;84;21104;-71
2022/05/01 00:09:42;;;;;;;9.73;5.67;;;;;;;1.82;94.99;100885.00;1691702;84;21072;-70
2022/05/01 00:12:10;;;;;;;10.40;4.75;;;;;;;1.80;94.67;100889.30;1691781;84;21120;-70
2022/05/01 00:14:39;;;;;;;8.98;4.22;;;;;;;1.80;94.96;100889.30;1691541;84;21243;-70
2022/05/01 00:17:05;;;;;;;7.15;4.17;;;;;;;1.79;94.82;100886.23;1691434;84;21441;-70
2022/05/01 00:19:32;;;;;;;8.73;4.25;;;;;;;1.76;94.71;100892.70;1691456;84;21112;-71
2022/05/01 00:21:59;;;;;;;8.08;4.58;;;;;;;1.74;94.58;100889.66;1691491;84;21579;-70
2022/05/01 00:24:27;;;;;;;10.00;4.42;;;;;;;1.68;94.68;100902.16;1691525;84;21087;-72
2022/05/01 00:26:57;;;;;;;11.48;4.28;;;;;;;1.68;94.68;100902.16;1691666;84;21207;-70
2022/05/01 00:29:24;;;;;;;6.45;4.10;;;;;;;1.64;94.88;100895.17;1667936;84;21088;-70
2022/05/01 00:31:51;;;;;;;8.65;4.37;;;;;;;1.62;95.31;100900.34;1691547;84;21597;-70
2022/05/01 00:37:04;;;;;;;11.70;5.22;;;;;;;1.57;95.41;100902.45;1658443;86;21072;-71
2022/05/01 00:39:31;;;;;;;12.47;4.78;;;;;;;1.58;95.79;100906.78;1658431;86;21596;-71
2022/05/01 00:41:58;;;;;;;10.28;4.90;;;;;;;1.54;95.55;100897.20;1658153;86;21101;-69
2022/05/01 00:44:24;;;;;;;11.38;4.58;;;;;;;1.52;95.42;100897.61;1658176;86;21049;-71
2022/05/01 00:46:53;;;;;;;11.10;4.67;;;;;;;1.49;95.54;100904.06;1658328;86;21068;-70
2022/05/01 00:49:25;;;;;;;10.15;4.62;;;;;;;1.43;95.62;100903.14;1655183;86;21074;-71
2022/05/01 00:52:08;;;;;;;11.60;4.70;;;;;;;1.41;95.63;100905.28;1686691;85;22364;-70
2022/05/01 00:54:42;;;;;;;8.70;4.40;;;;;;;1.35;95.98;100900.86;1654819;85;21016;-70
2022/05/01 00:57:09;;;;;;;11.80;5.17;;;;;;;1.35;95.98;100900.86;1721190;83;21121;-70
2022/05/01 00:59:37;;;;;;;9.93;5.50;;;;;;;1.33;96.23;100903.86;1721256;83;21113;-69
2022/05/01 01:02:05;;;;;;;12.73;5.40;;;;;;;1.29;96.47;100899.91;1686346;85;21092;-69
2022/05/01 01:04:33;;;;;;;13.25;5.65;;;;;;;1.26;96.60;100900.75;1686115;85;21254;-70
2022/05/01 01:07:00;;;;;;;15.95;5.08;;;;;;;1.23;96.83;100899.42;1686181;85;21077;-69
2022/05/01 01:09:27;;;;;;;11.00;4.97;;;;;;;1.20;97.08;100903.28;1686085;85;21600;-70
2022/05/01 01:14:44;;;;;;;10.70;4.42;;;;;;;1.13;97.52;100905.31;1650499;86;21129;-71
2022/05/01 01:17:10;;;;;;;9.65;4.80;;;;;;;1.08;98.28;100905.68;1650211;86;22233;-69
2022/05/01 01:19:36;;;;;;;9.75;5.25;;;;;;;1.08;98.28;100905.68;1650992;85;21112;-69
2022/05/01 01:22:05;;;;;;;10.23;4.42;;;;;;;1.04;98.50;100917.33;1681162;85;21078;-70
2022/05/01 01:24:34;;;;;;;10.98;4.22;;;;;;;1.01;98.59;100913.80;1680966;85;21148;-70
2022/05/01 01:27:01;;;;;;;7.55;4.67;;;;;;;0.98;98.78;100917.22;1681107;84;21120;-70
2022/05/01 01:32:14;;;;;;;10.03;4.22;;;;;;;0.94;99.46;100913.27;1683011;85;21057;-70
2022/05/01 01:34:40;;;;;;;6.90;4.25;;;;;;;0.93;100.00;100912.41;1683933;85;21005;-70
2022/05/01 01:37:08;;;;;;;8.20;4.20;;;;;;;0.91;100.00;100912.80;1684172;85;21096;-70
2022/05/01 01:39:35;;;;;;;7.53;4.22;;;;;;;0.92;100.00;100914.56;1684150;83;21041;-70
2022/05/01 01:42:07;;;;;;;7.45;4.67;;;;;;;0.93;100.00;100914.99;1684067;85;21183;-71
2022/05/01 01:44:38;;;;;;;8.85;4.53;;;;;;;0.91;100.00;100920.58;1683841;85;21073;-69
2022/05/01 01:47:06;;;;;;;9.40;3.50;;;;;;;0.92;100.00;100918.85;1684328;85;21088;-72
2022/05/01 01:49:33;;;;;;;9.63;4.37;;;;;;;0.89;100.00;100914.49;1685266;85;21084;-70
2022/05/01 01:52:00;;;;;;;7.83;4.60;;;;;;;0.87;100.00;100918.78;1686735;85;21060;-70
2022/05/01 01:54:28;;;;;;;10.93;4.75;;;;;;;0.84;100.00;100913.56;1686651;85;21236;-70
2022/05/01 01:56:54;;;;;;;9.20;4.70;;;;;;;0.84;100.00;100917.45;1691053;84;21072;-70
2022/05/01 01:59:22;;;;;;;6.95;4.72;;;;;;;0.81;100.00;100916.12;1691132;84;21568;-69
2022/05/01 02:01:49;;;;;;;8.58;4.70;;;;;;;0.78;100.00;100922.53;1691264;84;21036;-68
2022/05/01 02:04:15;;;;;;;8.73;5.00;;;;;;;0.77;100.00;100920.37;1691142;84;21080;-70
2022/05/01 02:06:43;;;;;;;12.18;5.28;;;;;;;0.76;100.00;100926.81;1691652;84;21208;-70
2022/05/01 02:09:12;;;;;;;9.48;4.25;;;;;;;0.75;100.00;100928.55;1691239;84;21072;-69
2022/05/01 02:11:39;;;;;;;8.15;4.67;;;;;;;0.74;100.00;100927.25;1691666;84;21048;-70
2022/05/01 02:14:05;;;;;;;9.35;4.37;;;;;;;0.74;100.00;100932.43;1691396;84;21537;-70
2022/05/01 02:16:32;;;;;;;13.90;5.47;;;;;;;0.72;100.00;100931.53;1691544;84;21068;-70
2022/05/01 02:18:59;;;;;;;10.93;4.92;;;;;;;0.70;100.00;100931.92;1690995;84;21214;-69
2022/05/01 02:21:35;;;;;;;7.78;4.70;;;;;;;0.68;100.00;100927.14;1691212;84;21064;-69
2022/05/01 02:24:08;;;;;;;9.98;4.80;;;;;;;0.61;100.00;100927.03;1691482;84;21061;-70
2022/05/01 02:26:35;;;;;;;9.65;4.95;;;;;;;0.61;100.00;100927.03;1691323;84;21001;-70
2022/05/01 02:29:09;;;;;;;12.00;4.53;;;;;;;0.61;100.00;100932.21;1691195;84;21048;-70
2022/05/01 02:31:39;;;;;;;11.12;5.15;;;;;;;0.60;100.00;100927.89;1680747;84;21106;-69
2022/05/01 02:34:06;;;;;;;8.95;4.67;;;;;;;0.59;100.00;100937.80;1660074;86;21115;-70
2022/05/01 02:36:34;;;;;;;7.70;4.72;;;;;;;0.58;100.00;100936.49;1660896;86;21084;-70
2022/05/01 02:39:00;;;;;;;9.80;4.95;;;;;;;0.56;100.00;100941.64;1660722;86;21055;-70
2022/05/01 02:41:28;;;;;;;14.30;4.62;;;;;;;0.56;100.00;100939.05;1660563;86;21078;-70
2022/05/01 02:43:56;;;;;;;10.20;5.15;;;;;;;0.54;100.00;100942.47;1660889;85;22308;-70
2022/05/01 02:46:26;;;;;;;6.75;4.50;;;;;;;0.54;100.00;100943.33;1706456;84;21048;-70
2022/05/01 02:48:53;;;;;;;10.13;5.67;;;;;;;0.54;100.00;100939.44;1707431;82;21107;-69
2022/05/01 02:51:19;;;;;;;11.00;4.62;;;;;;;0.58;100.00;100942.54;1713120;83;21050;-69
2022/05/01 02:53:46;;;;;;;8.08;4.40;;;;;;;0.60;100.00;100942.14;1713408;83;21538;-70
2022/05/01 02:56:13;;;;;;;11.15;5.20;;;;;;;0.62;100.00;100944.34;1712970;83;21171;-70
2022/05/01 02:58:40;;;;;;;10.00;5.33;;;;;;;0.62;100.00;100944.34;1678587;85;21073;-70
2022/05/01 03:01:07;;;;;;;10.70;5.37;;;;;;;0.60;100.00;100942.14;1713028;83;21475;-70
2022/05/01 03:03:35;;;;;;;11.43;5.83;;;;;;;0.61;100.00;100946.47;1713198;83;21034;-71
2022/05/01 03:06:02;;;;;;;6.95;4.70;;;;;;;0.63;100.00;100945.21;1713423;83;21003;-70
2022/05/01 03:08:28;;;;;;;11.57;5.95;;;;;;;0.63;100.00;100945.21;1713206;82;21233;-71
2022/05/01 03:10:55;;;;;;;10.50;5.55;;;;;;;0.66;100.00;100950.44;1713057;82;21319;-72
2022/05/01 03:13:22;;;;;;;13.40;5.65;;;;;;;0.71;100.00;100946.63;1713284;83;21815;-70
2022/05/01 03:15:49;;;;;;;14.13;5.12;;;;;;;0.83;100.00;100949.43;1713448;82;21022;-70
2022/05/01 03:23:39;;;;;;;11.10;5.10;;;;;;;2.10;100.00;100944.61;1636515;86;21072;-70
2022/05/01 03:26:06;;;;;;;7.87;4.42;;;;;;;3.15;100.00;100946.38;1713290;82;20994;-72
2022/05/01 03:28:32;;;;;;;9.83;4.90;;;;;;;3.15;100.00;100946.38;1678940;85;21053;-70
2022/05/01 03:31:00;;;;;;;7.28;4.28;;;;;;;3.64;97.91;100944.89;1677973;85;21054;-69
2022/05/01 03:33:26;;;;;;;8.80;4.67;;;;;;;4.11;95.19;100944.17;1678333;85;21246;-71
2022/05/01 03:35:55;;;;;;;6.70;4.08;;;;;;;4.56;91.97;100943.82;1678399;85;21076;-70
2022/05/01 03:38:22;;;;;;;7.62;4.00;;;;;;;5.02;89.33;100945.11;1678490;84;21048;-70
2022/05/01 03:40:49;;;;;;;7.95;4.05;;;;;;;5.38;86.05;100948.51;1678235;85;21581;-71
2022/05/01 03:43:16;;;;;;;6.33;3.98;;;;;;;5.68;83.46;100949.73;1678251;85;21069;-72
2022/05/01 03:45:43;;;;;;;8.38;4.30;;;;;;;6.09;81.74;100946.06;1678230;85;21214;-69
2022/05/01 03:48:11;;;;;;;7.75;4.35;;;;;;;6.57;79.27;100944.45;1678608;85;21077;-70
2022/05/01 03:50:39;;;;;;;11.53;4.80;;;;;;;6.91;76.59;100941.12;1678267;85;21060;-71
2022/05/01 03:53:07;;;;;;;7.10;4.80;;;;;;;7.24;75.00;100942.98;1678276;85;21116;-71
2022/05/01 03:55:36;;;;;;;10.23;4.30;;;;;;;7.63;73.49;100941.25;1678379;85;21052;-72
2022/05/01 03:58:04;;;;;;;10.03;4.60;;;;;;;8.07;71.42;100944.61;1678607;85;21159;-70
2022/05/01 04:00:31;;;;;;;8.20;4.10;;;;;;;8.51;70.00;100937.90;1678318;85;21104;-71
2022/05/01 04:02:58;;;;;;;8.55;4.03;;;;;;;8.99;67.60;100941.89;1678498;85;22107;-70
2022/05/01 04:05:25;;;;;;;9.43;4.37;;;;;;;9.44;65.54;100943.27;1678567;85;21024;-71
2022/05/01 04:07:52;;;;;;;6.78;3.27;;;;;;;9.87;64.39;100944.17;1678533;85;21065;-71
2022/05/01 04:10:18;;;;;;;9.65;4.00;;;;;;;10.30;62.77;100935.34;1678548;85;21232;-72
2022/05/01 04:12:46;;;;;;;9.50;3.90;;;;;;;10.81;61.11;100936.33;1678413;85;21085;-69
2022/05/01 04:15:14;;;;;;;6.25;4.12;;;;;;;11.26;59.47;100933.84;1678552;85;21061;-71
2022/05/01 04:17:42;;;;;;;8.18;3.90;;;;;;;11.27;58.59;100936.45;1678484;85;21056;-72
2022/05/01 04:20:16;;;;;;;14.93;4.53;;;;;;;10.99;58.90;100939.39;1678616;85;21052;-70
2022/05/01 04:22:47;;;;;;;8.08;4.60;;;;;;;10.74;59.25;100940.45;1678437;85;21256;-71
2022/05/01 04:25:19;;;;;;;9.65;4.15;;;;;;;10.57;59.96;100940.88;1678261;84;21561;-71
2022/05/01 04:27:51;;;;;;;8.20;4.78;;;;;;;10.41;60.13;100945.64;1678294;85;21033;-71
2022/05/01 04:30:20;;;;;;;14.07;4.62;;;;;;;10.23;60.25;100944.25;1678601;85;21607;-70
2022/05/01 04:33:02;;;;;;;12.85;4.22;;;;;;;10.12;60.68;100952.37;1678995;85;21058;-71
2022/05/01 04:35:37;;;;;;;7.15;4.78;;;;;;;9.99;60.81;100945.67;1721248;83;21245;-71
2022/05/01 04:38:13;;;;;;;6.03;4.10;;;;;;;9.86;61.16;100956.89;1720983;83;21097;-70
2022/05/01 04:40:48;;;;;;;6.72;4.10;;;;;;;9.72;62.22;100955.00;1721166;82;21061;-71
2022/05/01 04:43:17;;;;;;;6.42;3.85;;;;;;;9.59;63.44;100954.37;1721170;83;21115;-70
2022/05/01 04:45:47;;;;;;;8.15;4.05;;;;;;;9.52;64.77;100958.02;1721344;83;21037;-70
2022/05/01 04:48:17;;;;;;;9.50;4.10;;;;;;;9.48;65.66;100954.60;1720940;82;21591;-70
2022/05/01 04:50:46;;;;;;;11.10;4.47;;;;;;;9.47;66.28;100957.25;1685981;85;21021;-70
2022/05/01 04:53:13;;;;;;;10.68;4.35;;;;;;;9.47;66.57;100956.80;1685819;85;21100;-71
2022/05/01 04:55:41;;;;;;;10.25;4.50;;;;;;;9.48;66.99;100958.97;1686060;85;21084;-71
2022/05/01 04:58:09;;;;;;;8.80;4.40;;;;;;;9.51;66.97;100958.93;1686322;85;21981;-71
2022/05/01 05:00:35;;;;;;;9.83;5.20;;;;;;;9.58;66.51;100957.91;1685954;85;21197;-71
2022/05/01 05:03:02;;;;;;;9.20;4.30;;;;;;;9.70;67.07;100958.11;1720943;83;21017;-70
2022/05/01 05:05:31;;;;;;;16.25;5.17;;;;;;;9.75;67.57;100953.16;1720877;83;21048;-71
2022/05/01 05:10:48;;;;;;;11.20;5.72;;;;;;;9.83;67.02;100953.02;1720902;83;21061;-70
2022/05/01 05:13:15;;;;;;;;;;;;;;;9.93;67.00;100955.01;1723693;83;21152;-71
2022/05/01 05:15:42;;;;;;;15.20;7.90;;;;;;;10.08;66.23;100948.11;1720768;83;20179;-71
2022/05/01 05:18:09;;;;;;;16.20;8.98;;;;;;;10.27;64.72;100956.45;1686208;85;21052;-70
2022/05/01 05:20:36;;;;;;;25.45;9.98;;;;;;;10.46;63.53;100947.70;1686044;85;21053;-70
2022/05/01 05:23:02;;;;;;;17.45;9.00;;;;;;;10.80;62.49;100948.22;1686176;83;21083;-71
2022/05/01 05:25:29;;;;;;;19.87;9.95;;;;;;;11.18;60.14;100947.67;1721178;83;21233;-71
2022/05/01 05:27:56;;;;;;;19.57;9.05;;;;;;;11.49;58.81;100948.58;1721057;83;21017;-70
2022/05/01 05:30:23;;;;;;;17.32;8.08;;;;;;;11.74;57.16;100939.98;1720840;83;21597;-71
2022/05/01 05:32:49;;;;;;;18.55;7.22;;;;;;;11.96;53.43;100946.40;1721187;83;20996;-70
2022/05/01 05:35:16;;;;;;;19.48;7.22;;;;;;;12.15;51.37;100943.20;1721006;83;21414;-72
2022/05/01 05:37:42;;;;;;;17.57;7.47;;;;;;;12.22;49.92;100940.78;1685912;83;21166;-70
2022/05/01 05:40:11;;;;;;;17.75;6.95;;;;;;;12.28;49.80;100943.20;1686042;85;21028;-72
2022/05/01 05:42:39;;;;;;;18.57;7.80;;;;;;;12.41;48.94;100940.20;1686478;85;21504;-71
2022/05/01 05:45:07;;;;;;;17.17;7.12;;;;;;;12.51;48.57;100944.27;1686110;85;21745;-71
2022/05/01 05:47:34;;;;;;;16.90;8.08;;;;;;;12.63;48.71;100943.89;1686377;85;21028;-71
2022/05/01 05:50:00;;;;;;;15.70;7.47;;;;;;;12.80;48.64;100941.54;1685003;85;21212;-70
2022/05/01 05:52:27;;;;;;;16.52;7.90;;;;;;;13.00;48.33;100946.63;1678494;85;21058;-72
2022/05/01 05:54:54;;;;;;;15.35;7.12;;;;;;;13.41;47.92;100942.58;1678499;85;21077;-71
2022/05/01 05:57:21;;;;;;;15.60;7.53;;;;;;;13.93;47.57;100937.12;1678634;85;21031;-71
2022/05/01 05:59:48;;;;;;;15.60;7.05;;;;;;;14.63;45.03;100937.93;1678700;85;21233;-71
2022/05/01 06:02:15;;;;;;;15.10;6.12;;;;;;;15.34;44.15;100937.59;1678708;85;21238;-71
2022/05/01 06:04:43;;;;;;;13.55;6.25;;;;;;;16.10;40.01;100935.48;1678739;85;21053;-71
2022/05/01 06:07:10;;;;;;;9.35;5.40;;;;;;;16.54;40.10;100935.13;1678461;85;21585;-70
2022/05/01 06:09:38;;;;;;;14.60;5.92;;;;;;;17.15;38.73;100931.68;1678489;85;21057;-71
2022/05/01 06:12:09;;;;;;;11.85;5.28;;;;;;;17.85;36.91;100930.23;1678738;85;21065;-71
2022/05/01 06:14:37;;;;;;;9.30;5.28;;;;;;;18.59;35.59;100927.83;1678882;85;21617;-71
2022/05/01 06:17:04;;;;;;;10.95;5.20;;;;;;;19.13;34.18;100925.16;1678662;85;21495;-71
2022/05/01 06:19:30;;;;;;;8.20;4.60;;;;;;;19.57;33.11;100922.92;1678993;85;21100;-71
2022/05/01 06:21:58;;;;;;;13.00;4.65;;;;;;;20.06;32.28;100922.52;1678531;84;21108;-70
2022/05/01 06:24:26;;;;;;;8.68;4.67;;;;;;;20.57;30.73;100921.92;1678730;85;21074;-72
2022/05/01 06:26:52;;;;;;;8.45;4.62;;;;;;;20.97;29.62;100928.15;1679004;85;21184;-71
2022/05/01 06:29:19;;;;;;;7.30;4.28;;;;;;;21.04;29.52;100924.09;1678871;85;21033;-72
2022/05/01 06:31:46;;;;;;;7.40;4.03;;;;;;;21.34;28.63;100924.28;1678823;85;21076;-70
2022/05/01 06:34:13;;;;;;;5.03;3.27;;;;;;;21.57;28.09;100916.84;1678567;85;21053;-73
2022/05/01 06:36:41;;;;;;;10.18;3.67;;;;;;;21.80;27.71;100917.03;1678406;84;21046;-70
2022/05/01 06:39:11;;;;;;;6.35;2.80;;;;;;;21.88;27.41;100916.02;1678924;85;21910;-71
2022/05/01 06:41:36;;;;;;;7.67;3.77;;;;;;;22.19;26.51;100909.75;1678544;84;21167;-71
2022/05/01 06:44:03;;;;;;;6.25;3.02;;;;;;;22.57;26.59;100911.47;1678705;85;21057;-72
2022/05/01 06:46:30;;;;;;;6.05;3.50;;;;;;;22.85;25.99;100912.06;1678686;85;21002;-71
2022/05/01 06:48:56;;;;;;;4.95;3.02;;;;;;;23.09;25.56;100904.81;1678760;85;21091;-70
2022/05/01 06:51:23;;;;;;;6.42;3.15;;;;;;;23.11;24.83;100906.91;1678565;84;21158;-72
2022/05/01 06:53:49;;;;;;;9.88;2.90;;;;;;;23.06;24.33;100903.72;1678921;85;21076;-70
2022/05/01 06:56:16;;;;;;;10.05;3.05;;;;;;;23.01;24.54;100907.26;1678750;85;21080;-70
2022/05/01 06:58:43;;;;;;;10.32;3.10;;;;;;;23.01;23.43;100909.45;1679034;85;21056;-71
2022/05/01 07:01:09;;;;;;;4.95;2.80;;;;;;;22.69;23.92;100906.50;1678715;85;21064;-70
2022/05/01 07:03:37;;;;;;;4.47;2.50;;;;;;;22.54;24.04;100907.65;1678812;84;21061;-73
2022/05/01 07:06:03;;;;;;;4.90;2.52;;;;;;;22.38;24.18;100911.95;1678596;85;21401;-71
2022/05/01 07:08:30;;;;;;;3.50;2.10;;;;;;;22.24;24.63;100904.08;1678809;85;21028;-72
2022/05/01 07:10:57;;;;;;;4.83;2.77;;;;;;;22.26;24.16;100903.00;1678695;85;21045;-71
2022/05/01 07:13:23;;;;;;;2.77;1.65;;;;;;;22.34;23.90;100897.93;1678752;85;21594;-71
2022/05/01 07:15:50;;;;;;;4.33;2.35;;;;;;;22.41;23.81;100900.52;1678735;85;21787;-71
2022/05/01 07:18:17;;;;;;;3.85;2.10;;;;;;;22.55;23.42;100897.30;1678556;85;21041;-71
2022/05/01 07:20:45;;;;;;;4.55;1.85;;;;;;;22.77;23.11;100900.05;1678504;84;21513;-71
2022/05/01 07:23:12;;;;;;;3.98;2.05;;;;;;;22.74;21.90;100901.64;1678527;85;21677;-71
2022/05/01 07:25:39;;;;;;;3.22;1.50;;;;;;;22.62;21.80;100899.89;1678569;85;21065;-72
2022/05/01 07:28:06;;;;;;;2.65;1.45;;;;;;;22.73;21.65;100902.63;1678603;85;21124;-70
2022/05/01 07:30:33;;;;;;;2.55;1.40;;;;;;;22.72;21.64;100899.55;1678552;85;21570;-71
2022/05/01 07:32:59;;;;;;;2.40;1.32;;;;;;;22.53;21.98;100905.95;1671805;85;21061;-71
2022/05/01 07:35:26;;;;;;;2.95;1.40;;;;;;;22.31;22.04;100893.27;1657802;85;21113;-71
2022/05/01 07:37:53;;;;;;;3.90;1.50;;;;;;;22.13;22.03;100896.78;1713327;83;21031;-71
2022/05/01 07:40:24;;;;;;;4.87;1.80;;;;;;;21.89;22.29;100898.09;1713182;82;21552;-72
2022/05/01 07:42:48;;;;;;;2.85;1.47;;;;;;;21.56;22.57;100896.39;1713206;82;21091;-72
2022/05/01 07:45:15;;;;;;;4.03;1.60;;;;;;;20.91;22.63;100906.67;1712953;83;20968;-72
2022/05/01 07:47:41;;;;;;;3.58;2.15;;;;;;;19.84;23.65;100899.84;1713518;82;21059;-72
2022/05/01 07:50:11;;;;;;;4.15;1.87;;;;;;;19.11;25.00;100902.55;1712950;83;21066;-70
2022/05/01 07:52:39;;;;;;;4.60;2.25;;;;;;;18.68;25.56;100902.88;1720860;82;21158;-72
2022/05/01 07:55:07;;;;;;;4.22;1.90;;;;;;;18.22;25.98;100900.60;1720638;83;21107;-72
2022/05/01 07:57:35;;;;;;;3.47;1.95;;;;;;;18.00;26.70;100902.75;1720690;83;21039;-72
2022/05/01 08:00:02;;;;;;;5.85;2.25;;;;;;;17.78;27.02;100898.58;1720588;83;21090;-72
2022/05/01 08:05:16;;;;;;;3.52;2.05;;;;;;;17.68;27.50;100897.34;1796897;79;22664;-71
2022/05/01 08:07:43;;;;;;;4.50;2.30;;;;;;;17.58;27.81;100902.80;1756790;81;21037;-72
2022/05/01 08:10:12;;;;;;;6.92;1.80;;;;;;;17.54;27.71;100909.22;1757810;81;20986;-72
2022/05/01 08:12:40;;;;;;;6.67;2.20;;;;;;;17.50;28.23;100899.20;1758187;81;21466;-73
2022/05/01 08:15:09;;;;;;;3.60;1.70;;;;;;;17.42;28.82;100900.09;1757497;81;20977;-70
2022/05/01 08:17:41;;;;;;;;;;;;;;;17.36;29.09;100906.59;1761034;81;20981;-70
2022/05/01 08:23:21;;;;;;;4.65;1.92;;;;;;;17.12;30.29;100901.24;1749273;82;21077;-72
2022/05/01 08:25:58;;;;;;;3.67;2.02;;;;;;;17.09;30.36;100898.72;1748882;82;21104;-72
2022/05/01 08:28:24;;;;;;;2.42;1.60;;;;;;;17.18;30.15;100900.91;1748370;82;21065;-71
2022/05/01 08:30:51;;;;;;;2.85;1.77;;;;;;;17.19;29.86;100901.31;1748442;82;20998;-71
2022/05/01 08:33:17;;;;;;;6.22;1.72;;;;;;;17.23;29.34;100892.67;1748628;82;21018;-71
2022/05/01 08:35:45;;;;;;;2.15;1.70;;;;;;;17.29;29.16;100892.36;1748202;82;21252;-72
2022/05/01 08:38:13;;;;;;;3.87;2.00;;;;;;;17.36;28.82;100890.61;1748122;82;21581;-71
2022/05/01 08:40:40;;;;;;;5.10;1.87;;;;;;;17.62;29.00;100887.02;1747969;82;21046;-71
2022/05/01 08:43:06;;;;;;;3.67;1.90;;;;;;;18.15;28.86;100875.23;1748426;82;21436;-71
2022/05/01 08:45:54;;;;;;;3.37;1.85;;;;;;;18.78;28.07;100881.42;1748171;82;21006;-72
2022/05/01 08:48:31;;;;;;;3.25;1.70;;;;;;;19.06;27.31;100869.46;1748012;82;21104;-72
2022/05/01 08:50:58;;;;;;;3.95;2.20;;;;;;;19.12;26.68;100866.03;1747226;82;21101;-72
2022/05/01 08:53:24;;;;;;;2.65;1.70;;;;;;;19.06;26.80;100868.13;1748277;81;21042;-71
2022/05/01 08:55:51;;;;;;;6.47;1.90;;;;;;;18.92;27.19;100868.59;1748098;81;21093;-72
2022/05/01 08:58:18;;;;;;;2.47;1.85;;;;;;;18.91;27.24;100868.19;1748110;82;21018;-72
2022/05/01 09:00:44;;;;;;;5.83;2.20;;;;;;;18.85;27.05;100866.77;1748068;82;21291;-71
2022/05/01 09:03:11;;;;;;;4.25;1.80;;;;;;;18.79;26.83;100867.12;1718808;81;21026;-71
2022/05/01 09:05:39;;;;;;;6.65;2.52;;;;;;;18.81;27.41;100866.55;1735098;82;21053;-70
2022/05/01 09:08:07;;;;;;;7.83;2.25;;;;;;;18.87;26.19;100870.20;1735052;82;21590;-72
2022/05/01 09:10:34;;;;;;;6.22;2.15;;;;;;;18.80;26.81;100867.52;1735043;82;21186;-72
2022/05/01 09:13:01;;;;;;;2.45;1.65;;;;;;;18.60;26.20;100869.51;1735260;82;21737;-73
2022/05/01 09:15:40;;;;;;;4.45;2.37;;;;;;;18.33;26.54;100864.45;1734606;82;21034;-72
2022/05/01 09:18:10;;;;;;;2.35;1.62;;;;;;;18.11;26.83;100862.17;1734529;82;21014;-72
2022/05/01 09:20:42;;;;;;;6.85;2.00;;;;;;;17.96;27.25;100861.22;1734235;82;21061;-71
2022/05/01 09:23:07;;;;;;;2.58;1.90;;;;;;;17.92;27.11;100863.66;1734063;82;21045;-73
2022/05/01 09:25:33;;;;;;;2.45;1.75;;;;;;;17.82;27.48;100854.00;1734549;82;21584;-71
2022/05/01 09:28:04;;;;;;;3.95;2.00;;;;;;;17.77;27.87;100857.36;1734498;82;21054;-71
2022/05/01 09:30:35;;;;;;;5.60;2.17;;;;;;;17.81;28.48;100850.48;1728539;82;21049;-72
2022/05/01 09:33:02;;;;;;;4.00;1.85;;;;;;;17.88;28.00;100848.34;1734741;82;21054;-71
2022/05/01 09:35:35;;;;;;;3.37;1.82;;;;;;;17.85;27.48;100850.30;1734490;82;21117;-71
2022/05/01 09:38:22;;;;;;;3.95;2.02;;;;;;;17.89;27.92;100850.04;1734313;82;21253;-70
2022/05/01 09:40:54;;;;;;;4.05;2.20;;;;;;;18.09;28.23;100850.73;1734786;82;21569;-72
2022/05/01 09:43:44;;;;;;;3.65;1.67;;;;;;;18.35;28.24;100851.89;1734402;81;21109;-72
2022/05/01 09:46:18;;;;;;;4.72;2.00;;;;;;;18.50;28.00;100847.48;1734810;82;21073;-71
2022/05/01 09:49:04;;;;;;;3.45;1.95;;;;;;;18.50;27.87;100850.16;1734654;82;21324;-72
2022/05/01 09:51:36;;;;;;;4.12;1.90;;;;;;;18.39;27.42;100846.77;1734750;82;21202;-71
2022/05/01 09:54:04;;;;;;;3.47;1.90;;;;;;;18.36;27.69;100849.15;1734554;82;21006;-71
2022/05/01 09:56:46;;;;;;;4.08;1.60;;;;;;;18.54;27.94;100844.55;1734362;82;21034;-71
2022/05/01 09:59:14;;;;;;;3.77;1.95;;;;;;;18.87;27.18;100838.18;1734481;82;21479;-71
2022/05/01 10:02:06;;;;;;;3.40;1.90;;;;;;;19.16;26.84;100832.38;1734522;82;20999;-71
2022/05/01 10:04:35;;;;;;;4.65;1.80;;;;;;;19.69;27.24;100836.67;1740538;81;21262;-70
2022/05/01 10:07:03;;;;;;;3.62;1.98;;;;;;;20.43;24.84;100831.84;1748686;82;21050;-72
2022/05/01 10:09:34;;;;;;;4.85;2.20;;;;;;;20.85;24.72;100828.60;1748594;82;21612;-74
2022/05/01 10:12:06;;;;;;;6.65;2.30;;;;;;;21.23;24.22;100819.70;1748625;82;22273;-71
2022/05/01 10:14:33;;;;;;;4.87;2.33;;;;;;;21.70;23.35;100807.44;1748853;81;21037;-71
2022/05/01 10:17:01;;;;;;;4.00;1.80;;;;;;;21.88;23.13;100804.74;1748513;82;21642;-70
2022/05/01 10:19:28;;;;;;;2.42;1.80;;;;;;;22.14;23.50;100806.81;1748357;81;21014;-72
2022/05/01 10:21:57;;;;;;;2.37;1.75;;;;;;;22.47;22.22;100805.75;1748414;82;21052;-70
2022/05/01 10:24:24;;;;;;;4.30;1.60;;;;;;;22.64;21.55;100810.70;1748421;82;21525;-73
2022/05/01 10:27:00;;;;;;;6.17;1.62;;;;;;;22.60;21.16;100806.53;1748135;82;21729;-72
2022/05/01 10:33:21;;;;;;;6.33;1.77;;;;;;;22.30;19.85;100795.82;1748601;82;21009;-72
2022/05/01 10:36:40;;;;;;;2.40;1.30;;;;;;;21.47;20.58;100797.89;1747027;82;21053;-71
2022/05/01 10:39:11;;;;;;;4.75;2.08;;;;;;;20.90;22.61;100806.37;1748549;82;21034;-71
2022/05/01 10:41:44;;;;;;;5.35;2.20;;;;;;;20.86;22.46;100799.52;1748150;82;21089;-72
2022/05/01 10:44:36;;;;;;;3.83;1.90;;;;;;;21.03;22.62;100797.87;1748337;82;21257;-71
2022/05/01 10:47:12;;;;;;;8.23;4.87;;;;;;;21.23;22.60;100787.06;1748533;81;21037;-72
2022/05/01 10:49:42;;;;;;;5.33;2.30;;;;;;;21.30;22.78;100787.48;1748353;81;21506;-70
2022/05/01 10:52:21;;;;;;;5.58;3.00;;;;;;;21.21;22.20;100780.11;1748430;81;21636;-72
2022/05/01 10:54:59;;;;;;;5.45;1.98;;;;;;;21.05;21.95;100777.20;1748711;82;21037;-74
2022/05/01 10:57:25;;;;;;;4.62;1.85;;;;;;;20.92;22.40;100779.02;1748341;82;21107;-72
2022/05/01 11:00:11;;;;;;;4.60;1.75;;;;;;;20.68;22.19;100786.46;1748512;82;21022;-71
2022/05/01 11:02:45;;;;;;;2.55;1.75;;;;;;;20.47;22.15;100786.05;1748426;82;21022;-71
2022/05/01 11:05:32;;;;;;;3.83;1.80;;;;;;;20.28;22.36;100781.09;1747818;82;21550;-71
2022/05/01 11:08:00;;;;;;;4.15;1.67;;;;;;;20.27;22.74;100778.06;1748451;82;21033;-72
2022/05/01 11:10:28;;;;;;;7.10;1.95;;;;;;;20.50;23.14;100768.96;1720168;82;21096;-70
2022/05/01 11:12:55;;;;;;;5.47;2.47;;;;;;;20.52;22.07;100767.89;1748316;82;21728;-71
2022/05/01 11:15:27;;;;;;;3.02;1.87;;;;;;;20.62;22.67;100772.16;1721006;82;21320;-71
2022/05/01 11:17:54;;;;;;;4.47;2.50;;;;;;;20.67;23.50;100763.32;1748342;82;21034;-73
2022/05/01 11:20:25;;;;;;;7.62;1.87;;;;;;;20.85;22.70;100759.00;1748381;82;21509;-70
2022/05/01 11:22:53;;;;;;;3.62;1.60;;;;;;;20.85;22.70;100760.34;1748707;82;21882;-72
2022/05/01 11:25:40;;;;;;;4.33;2.00;;;;;;;20.58;22.74;100762.62;1748302;82;21112;-72
2022/05/01 11:28:07;;;;;;;4.97;1.95;;;;;;;20.20;22.74;100756.70;1748648;82;21061;-72
2022/05/01 11:30:37;;;;;;;3.10;1.80;;;;;;;19.73;23.42;100755.35;1748601;82;20994;-71
2022/05/01 11:33:10;;;;;;;4.87;2.37;;;;;;;19.43;23.83;100753.67;1720442;82;22216;-72
2022/05/01 11:36:01;;;;;;;5.00;1.80;;;;;;;19.23;24.29;100756.75;1718538;83;21120;-71
2022/05/01 11:38:41;;;;;;;4.00;1.62;;;;;;;19.14;24.34;100756.00;1718430;83;21030;-72
2022/05/01 11:41:10;;;;;;;2.67;1.70;;;;;;;19.11;24.49;100757.54;1718426;83;21085;-72
2022/05/01 11:43:37;;;;;;;3.50;1.90;;;;;;;19.04;24.71;100749.91;1718889;83;21506;-72
2022/05/01 11:46:04;;;;;;;3.37;1.60;;;;;;;18.88;24.33;100750.97;1740135;82;21085;-71
2022/05/01 11:48:31;;;;;;;3.55;1.80;;;;;;;18.57;24.69;100751.00;1748693;82;21200;-72
2022/05/01 11:51:01;;;;;;;3.10;1.65;;;;;;;18.37;25.16;100756.67;1748287;82;21058;-71
2022/05/01 11:53:30;;;;;;;8.08;1.80;;;;;;;18.15;25.51;100757.07;1748509;82;21096;-72
2022/05/01 12:04:34;;;;;;;15.30;8.18;;;;;;;17.40;27.73;100759.05;1746125;82;21090;-74
2022/05/01 12:07:13;;;;;;;8.38;3.37;;;;;;;17.25;27.70;100756.38;1734148;82;21049;-71
2022/05/01 12:09:40;;;;;;;15.93;8.93;;;;;;;17.13;28.08;100756.09;1734428;82;21093;-71